createdAt,value
2018-12-12T00:01:23.992Z,546
2018-12-12T00:04:46.171Z,551
2018-12-12T00:08:08.349Z,543
2018-12-12T00:11:30.464Z,545
2018-12-12T00:14:52.702Z,539
2018-12-12T00:18:14.903Z,539
2018-12-12T00:21:37.046Z,541
2018-12-12T00:24:59.149Z,537
2018-12-12T00:28:21.314Z,549
2018-12-12T00:31:43.521Z,547
2018-12-12T00:35:05.761Z,544
2018-12-12T00:38:27.836Z,542
2018-12-12T00:41:50.003Z,541
2018-12-12T00:45:12.179Z,549
2018-12-12T00:48:34.363Z,547
2018-12-12T00:51:56.609Z,545
2018-12-12T00:55:18.743Z,543
2018-12-12T00:58:40.874Z,539
2018-12-12T01:02:03.056Z,549
2018-12-12T01:05:25.378Z,547
2018-12-12T01:08:47.467Z,543
2018-12-12T01:12:09.641Z,547
2018-12-12T01:15:31.823Z,547
2018-12-12T01:18:53.990Z,546
2018-12-12T01:22:16.196Z,543
2018-12-12T01:25:38.332Z,550
2018-12-12T01:29:00.435Z,544
2018-12-12T01:32:22.706Z,551
2018-12-12T01:35:44.875Z,542
2018-12-12T01:39:07.044Z,553
2018-12-12T01:42:29.228Z,548
2018-12-12T01:45:51.314Z,547
2018-12-12T01:49:13.571Z,534
2018-12-12T01:52:35.710Z,538
2018-12-12T01:55:57.910Z,538
2018-12-12T01:59:20.097Z,540
2018-12-12T02:02:42.281Z,543
2018-12-12T02:06:04.419Z,534
2018-12-12T02:09:26.581Z,538
2018-12-12T02:12:48.787Z,537
2018-12-12T02:16:10.936Z,545
2018-12-12T02:19:33.129Z,548
2018-12-12T02:22:55.312Z,543
2018-12-12T02:26:17.476Z,538
2018-12-12T02:29:39.602Z,537
2018-12-12T02:33:01.732Z,542
2018-12-12T02:36:24.000Z,544
2018-12-12T02:39:46.548Z,545
2018-12-12T02:43:08.339Z,542
2018-12-12T02:46:30.533Z,540
2018-12-12T02:49:52.691Z,542
2018-12-12T02:50:20.070Z,542
2018-12-12T02:53:14.861Z,545
2018-12-12T02:56:37.031Z,545
2018-12-12T02:59:59.120Z,547
2018-12-12T03:03:21.307Z,540
2018-12-12T03:06:43.545Z,536
2018-12-12T03:10:05.718Z,539
2018-12-12T03:13:27.898Z,544
2018-12-12T03:16:50.104Z,541
2018-12-12T03:20:12.250Z,539
2018-12-12T03:23:34.429Z,545
2018-12-12T03:26:56.518Z,547
2018-12-12T03:30:18.794Z,550
2018-12-12T03:33:40.936Z,545
2018-12-12T03:37:03.033Z,554
2018-12-12T03:40:25.392Z,548
2018-12-12T03:43:47.471Z,551
2018-12-12T03:47:09.554Z,542
2018-12-12T03:50:31.822Z,538
2018-12-12T03:53:53.926Z,540
2018-12-12T03:57:16.208Z,543
2018-12-12T04:00:38.332Z,544
2018-12-12T04:04:00.423Z,552
2018-12-12T04:07:22.667Z,546
2018-12-12T04:10:44.767Z,545
2018-12-12T04:14:07.010Z,541
2018-12-12T04:17:29.178Z,546
2018-12-12T04:20:51.351Z,547
2018-12-12T04:24:13.523Z,547
2018-12-12T04:27:35.627Z,535
2018-12-12T04:30:57.876Z,540
2018-12-12T04:34:19.993Z,545
2018-12-12T04:37:42.291Z,543
2018-12-12T04:41:04.416Z,552
2018-12-12T04:44:26.576Z,549
2018-12-12T04:47:50.322Z,550
2018-12-12T04:51:10.844Z,549
2018-12-12T04:54:33.012Z,555
2018-12-12T04:57:55.181Z,560
2018-12-12T05:01:17.359Z,553
2018-12-12T05:04:39.527Z,563
2018-12-12T05:08:01.712Z,558
2018-12-12T05:11:23.883Z,557
2018-12-12T05:14:46.129Z,551
2018-12-12T05:18:08.253Z,552
2018-12-12T05:21:30.414Z,545
2018-12-12T05:24:52.673Z,552
2018-12-12T05:28:15.598Z,550
2018-12-12T05:31:37.001Z,552
2018-12-12T05:34:59.122Z,550
2018-12-12T05:38:21.304Z,541
2018-12-12T05:41:43.470Z,555
2018-12-12T05:45:05.723Z,560
2018-12-12T05:48:27.873Z,554
2018-12-12T05:51:49.985Z,551
2018-12-12T05:55:12.216Z,552
2018-12-12T05:58:34.408Z,556
2018-12-12T06:01:56.622Z,555
2018-12-12T06:05:18.748Z,556
2018-12-12T06:08:40.841Z,558
2018-12-12T06:12:03.090Z,567
2018-12-12T06:15:25.271Z,561
2018-12-12T06:18:47.440Z,566
2018-12-12T06:22:09.612Z,574
2018-12-12T06:25:31.784Z,576
2018-12-12T06:28:53.967Z,583
2018-12-12T06:32:16.133Z,583
2018-12-12T06:35:38.229Z,581
2018-12-12T06:39:00.488Z,584
2018-12-12T06:42:22.685Z,593
2018-12-12T06:45:44.839Z,592
2018-12-12T06:49:07.017Z,587
2018-12-12T06:52:29.099Z,588
2018-12-12T06:55:51.341Z,601
2018-12-12T06:59:13.459Z,600
2018-12-12T07:02:35.702Z,609
2018-12-12T07:05:57.858Z,616
2018-12-12T07:09:20.036Z,686
2018-12-12T07:12:42.236Z,667
2018-12-12T07:16:05.182Z,666
2018-12-12T07:19:26.510Z,685
2018-12-12T07:22:48.756Z,675
2018-12-12T07:26:10.841Z,683
2018-12-12T07:29:33.068Z,678
2018-12-12T07:32:55.260Z,680
2018-12-12T07:36:17.344Z,746
2018-12-12T07:39:39.555Z,928
2018-12-12T07:43:01.823Z,861
2018-12-12T07:46:23.943Z,803
2018-12-12T07:49:46.041Z,804
2018-12-12T07:53:08.217Z,841
2018-12-12T07:56:30.521Z,859
2018-12-12T07:59:52.561Z,880
2018-12-12T08:03:14.901Z,978
2018-12-12T08:06:36.907Z,900
2018-12-12T08:09:59.159Z,886
2018-12-12T08:13:21.339Z,901
2018-12-12T08:16:43.500Z,876
2018-12-12T08:20:05.688Z,881
2018-12-12T08:26:50.024Z,883
2018-12-12T08:30:12.177Z,903
2018-12-12T08:33:34.531Z,901
2018-12-12T08:36:56.569Z,885
2018-12-12T08:40:18.734Z,905
2018-12-12T08:47:03.103Z,896
2018-12-12T08:50:25.291Z,902
2018-12-12T08:53:47.444Z,895
2018-12-12T08:57:09.550Z,892
2018-12-12T09:00:31.792Z,889
2018-12-12T09:03:53.974Z,881
2018-12-12T09:07:16.141Z,868
2018-12-12T09:10:38.237Z,860
2018-12-12T09:14:00.411Z,865
2018-12-12T09:17:22.713Z,862
2018-12-12T09:20:44.858Z,863
2018-12-12T09:24:06.950Z,845
2018-12-12T09:27:29.171Z,826
2018-12-12T09:30:51.688Z,831
2018-12-12T09:34:13.541Z,821
2018-12-12T09:37:35.688Z,811
2018-12-12T09:40:57.888Z,830
2018-12-12T09:44:20.147Z,796
2018-12-12T09:47:42.233Z,792
2018-12-12T09:51:04.404Z,787
2018-12-12T09:54:26.612Z,817
2018-12-12T09:57:48.813Z,792
2018-12-12T10:01:10.942Z,788
2018-12-12T10:04:33.233Z,788
2018-12-12T10:07:59.062Z,779
2018-12-12T10:11:17.445Z,784
2018-12-12T10:14:39.738Z,772
2018-12-12T10:18:01.941Z,740
2018-12-12T10:21:23.959Z,730
2018-12-12T10:24:46.234Z,793
2018-12-12T10:28:08.312Z,771
2018-12-12T10:31:30.503Z,765
2018-12-12T10:34:52.729Z,756
2018-12-12T10:38:14.918Z,755
2018-12-12T10:41:37.024Z,733
2018-12-12T10:44:59.354Z,730
2018-12-12T10:48:21.302Z,798
2018-12-12T10:51:43.486Z,519
2018-12-12T10:55:05.835Z,499
2018-12-12T10:58:29.432Z,522
2018-12-12T11:01:50.100Z,489
2018-12-12T11:05:12.256Z,481
2018-12-12T11:08:34.492Z,481
2018-12-12T11:11:56.551Z,483
2018-12-12T11:15:18.831Z,485
2018-12-12T11:18:40.886Z,489
2018-12-12T11:22:03.155Z,490
2018-12-12T11:25:25.307Z,494
2018-12-12T11:28:47.619Z,488
2018-12-12T11:32:09.604Z,494
2018-12-12T11:35:31.971Z,497
2018-12-12T11:38:53.959Z,491
2018-12-12T11:42:16.140Z,499
2018-12-12T11:45:38.373Z,506
2018-12-12T11:49:00.654Z,512
2018-12-12T11:52:22.667Z,498
2018-12-12T11:59:07.007Z,509
2018-12-12T12:02:29.202Z,517
2018-12-12T12:05:51.555Z,526
2018-12-12T12:09:13.638Z,522
2018-12-12T12:15:58.047Z,535
2018-12-12T12:19:20.154Z,543
2018-12-12T12:22:42.349Z,546
2018-12-12T12:26:04.466Z,552
2018-12-12T12:29:26.666Z,556
2018-12-12T12:32:48.957Z,566
2018-12-12T12:36:11.172Z,570
2018-12-12T12:39:33.115Z,577
2018-12-12T12:42:55.425Z,589
2018-12-12T12:46:17.567Z,485
2018-12-12T12:49:39.766Z,441
2018-12-12T12:53:05.118Z,504
2018-12-12T12:56:24.132Z,502
2018-12-12T12:59:46.306Z,523
2018-12-12T13:03:08.688Z,524
2018-12-12T13:06:30.590Z,535
2018-12-12T13:09:52.824Z,538
2018-12-12T13:13:14.983Z,557
2018-12-12T13:16:37.140Z,563
2018-12-12T13:19:59.342Z,550
2018-12-12T13:23:21.395Z,572
2018-12-12T13:26:43.677Z,602
2018-12-12T13:30:05.847Z,560
2018-12-12T13:30:45.415Z,560
2018-12-12T13:33:28.029Z,564
2018-12-12T13:36:50.170Z,606
2018-12-12T13:40:12.373Z,627
2018-12-12T13:43:34.454Z,636
2018-12-12T13:46:56.817Z,628
2018-12-12T13:50:18.890Z,643
2018-12-12T13:53:41.085Z,647
2018-12-12T13:57:03.247Z,645
2018-12-12T14:00:25.419Z,650
2018-12-12T14:03:47.637Z,671
2018-12-12T14:07:09.814Z,656
2018-12-12T14:10:31.981Z,674
2018-12-12T14:13:54.123Z,627
2018-12-12T14:17:16.273Z,625
2018-12-12T14:20:38.504Z,624
2018-12-12T14:24:00.644Z,607
2018-12-12T14:27:22.763Z,599
2018-12-12T14:30:44.926Z,596
2018-12-12T14:34:07.105Z,597
2018-12-12T14:37:29.387Z,591
2018-12-12T14:40:51.469Z,591
2018-12-12T14:44:13.631Z,579
2018-12-12T14:47:35.812Z,580
2018-12-12T14:50:57.995Z,579
2018-12-12T14:54:20.232Z,589
2018-12-12T14:57:42.388Z,581
2018-12-12T15:01:04.588Z,587
2018-12-12T15:04:26.779Z,582
2018-12-12T15:07:49.115Z,658
2018-12-12T15:11:11.102Z,654
2018-12-12T15:14:33.220Z,662
2018-12-12T15:21:17.632Z,670
2018-12-12T15:24:39.784Z,675
2018-12-12T15:28:05.221Z,677
2018-12-12T15:31:24.189Z,691
2018-12-12T15:34:46.361Z,702
2018-12-12T15:38:08.529Z,737
2018-12-12T15:41:30.756Z,709
2018-12-12T15:44:52.873Z,713
2018-12-12T15:48:15.159Z,730
2018-12-12T15:51:37.133Z,731
2018-12-12T15:54:59.339Z,746
2018-12-12T15:58:21.596Z,736
2018-12-12T16:01:43.748Z,747
2018-12-12T16:05:06.178Z,745
2018-12-12T16:08:28.105Z,748
2018-12-12T16:11:50.301Z,727
2018-12-12T16:15:12.391Z,719
2018-12-12T16:18:34.609Z,752
2018-12-12T16:21:56.769Z,755
2018-12-12T16:25:18.921Z,735
2018-12-12T16:28:41.270Z,730
2018-12-12T16:32:03.329Z,725
2018-12-12T16:35:25.519Z,715
2018-12-12T16:38:47.694Z,762
2018-12-12T16:42:09.862Z,741
2018-12-12T16:45:32.032Z,738
2018-12-12T16:48:54.222Z,722
2018-12-12T16:52:16.319Z,715
2018-12-12T16:55:38.506Z,711
2018-12-12T16:59:00.748Z,706
2018-12-12T17:02:22.834Z,699
2018-12-12T17:05:45.102Z,711
2018-12-12T17:09:07.265Z,715
2018-12-12T17:12:29.360Z,718
2018-12-12T17:15:51.527Z,737
2018-12-12T17:19:13.783Z,734
2018-12-12T17:22:35.909Z,751
2018-12-12T17:25:58.118Z,787
2018-12-12T17:29:20.253Z,833
2018-12-12T17:32:42.391Z,861
2018-12-12T17:36:04.678Z,956
2018-12-12T17:39:26.934Z,1089
2018-12-12T17:42:48.916Z,1191
2018-12-12T17:46:11.163Z,1213
2018-12-12T17:49:33.376Z,1286
2018-12-12T17:52:55.511Z,1245
2018-12-12T17:56:17.608Z,1378
2018-12-12T17:59:39.880Z,1281
2018-12-12T18:03:02.117Z,1342
2018-12-12T18:06:24.219Z,1322
2018-12-12T18:09:46.372Z,1408
2018-12-12T18:13:08.561Z,1332
2018-12-12T18:16:30.660Z,1404
2018-12-12T18:19:52.820Z,1265
2018-12-12T18:23:17.204Z,1013
2018-12-12T18:26:37.277Z,812
2018-12-12T18:29:59.421Z,786
2018-12-12T18:33:21.608Z,716
2018-12-12T18:36:43.705Z,743
2018-12-12T18:40:05.932Z,730
2018-12-12T18:43:28.122Z,735
2018-12-12T18:46:50.231Z,734
2018-12-12T18:46:50.720Z,734
2018-12-12T18:50:12.482Z,743
2018-12-12T18:53:34.568Z,773
2018-12-12T18:56:56.845Z,747
2018-12-12T19:00:18.999Z,714
2018-12-12T19:03:41.236Z,696
2018-12-12T19:07:03.273Z,685
2018-12-12T19:10:25.500Z,674
2018-12-12T19:13:49.975Z,695
2018-12-12T19:17:09.853Z,719
2018-12-12T19:20:32.052Z,702
2018-12-12T19:23:54.125Z,681
2018-12-12T19:27:16.368Z,669
2018-12-12T19:30:38.555Z,653
2018-12-12T19:34:00.724Z,659
2018-12-12T19:37:22.892Z,653
2018-12-12T19:40:45.121Z,657
2018-12-12T19:44:07.175Z,652
2018-12-12T19:47:29.348Z,655
2018-12-12T19:50:51.511Z,650
2018-12-12T19:54:13.761Z,656
2018-12-12T19:57:35.938Z,646
2018-12-12T20:00:58.111Z,641
2018-12-12T20:04:20.290Z,632
2018-12-12T20:07:42.416Z,639
2018-12-12T20:11:04.636Z,637
2018-12-12T20:14:26.952Z,630
2018-12-12T20:17:48.965Z,634
2018-12-12T20:21:11.153Z,631
2018-12-12T20:24:33.373Z,625
2018-12-12T20:27:55.498Z,627
2018-12-12T20:31:17.672Z,621
2018-12-12T20:34:39.844Z,625
2018-12-12T20:38:02.006Z,613
2018-12-12T20:41:24.187Z,620
2018-12-12T20:44:46.369Z,619
2018-12-12T20:48:08.564Z,622
2018-12-12T20:51:30.660Z,622
2018-12-12T20:54:52.881Z,620
2018-12-12T20:58:15.063Z,618
2018-12-12T21:01:37.259Z,614
2018-12-12T21:04:59.342Z,621
2018-12-12T21:08:21.592Z,608
2018-12-12T21:08:22.111Z,608
2018-12-12T21:11:43.754Z,612
2018-12-12T21:15:05.851Z,610
2018-12-12T21:18:28.128Z,608
2018-12-12T21:21:50.191Z,606
2018-12-12T21:25:12.463Z,603
2018-12-12T21:28:34.623Z,603
2018-12-12T21:31:56.829Z,594
2018-12-12T21:35:20.363Z,598
2018-12-12T21:38:41.153Z,590
2018-12-12T21:42:03.248Z,600
2018-12-12T21:45:25.484Z,598
2018-12-12T21:48:47.682Z,601
2018-12-12T21:52:09.874Z,611
2018-12-12T21:55:32.034Z,606
2018-12-12T21:58:54.141Z,607
2018-12-12T22:02:16.321Z,612
2018-12-12T22:05:38.542Z,604
2018-12-12T22:09:00.687Z,588
2018-12-12T22:12:22.884Z,614
2018-12-12T22:15:44.979Z,615
2018-12-12T22:19:07.223Z,613
2018-12-12T22:22:29.404Z,607
2018-12-12T22:25:51.500Z,610
2018-12-12T22:29:13.821Z,613
2018-12-12T22:32:36.022Z,636
2018-12-12T22:35:58.026Z,672
2018-12-12T22:39:20.281Z,667
2018-12-12T22:42:42.499Z,653
2018-12-12T22:46:04.647Z,646
2018-12-12T22:49:26.842Z,628
2018-12-12T22:52:49.004Z,621
2018-12-12T22:56:11.142Z,615
2018-12-12T22:59:33.295Z,602
2018-12-12T23:02:55.422Z,606
2018-12-12T23:06:17.645Z,594
2018-12-12T23:09:39.824Z,596
2018-12-12T23:13:02.000Z,599
2018-12-12T23:16:24.125Z,585
2018-12-12T23:19:46.360Z,587
2018-12-12T23:23:08.466Z,584
2018-12-12T23:26:30.726Z,596
2018-12-12T23:29:52.799Z,583
2018-12-12T23:33:15.068Z,566
2018-12-12T23:36:37.241Z,569
2018-12-12T23:39:59.319Z,569
2018-12-12T23:43:21.584Z,561
2018-12-12T23:46:43.760Z,566
2018-12-12T23:50:05.949Z,565
2018-12-12T23:53:28.104Z,558
2018-12-12T23:56:54.007Z,552
